createdAt,value
2023-01-11T00:01:53.995Z,100.00
2023-01-11T00:04:28.393Z,100.00
2023-01-11T00:06:57.998Z,100.00
2023-01-11T00:09:26.793Z,100.00
2023-01-11T00:11:55.602Z,100.00
2023-01-11T00:14:24.351Z,100.00
2023-01-11T00:16:53.193Z,100.00
2023-01-11T00:19:21.859Z,100.00
2023-01-11T00:21:50.664Z,100.00
2023-01-11T00:24:19.471Z,100.00
2023-01-11T00:26:48.240Z,100.00
2023-01-11T00:29:17.136Z,100.00
2023-01-11T00:31:45.791Z,100.00
2023-01-11T00:34:14.577Z,100.00
2023-01-11T00:36:43.341Z,100.00
2023-01-11T00:39:12.069Z,100.00
2023-01-11T00:41:58.914Z,100.00
2023-01-11T00:44:45.943Z,100.00
2023-01-11T00:47:35.525Z,100.00
2023-01-11T00:50:04.972Z,100.00
2023-01-11T00:52:33.766Z,100.00
2023-01-11T00:55:02.552Z,100.00
2023-01-11T00:57:31.340Z,100.00
2023-01-11T01:00:00.734Z,100.00
2023-01-11T01:02:29.799Z,100.00
2023-01-11T01:04:58.608Z,100.00
2023-01-11T01:07:27.551Z,100.00
2023-01-11T01:09:56.377Z,100.00
2023-01-11T01:12:43.849Z,100.00
2023-01-11T01:15:12.512Z,100.00
2023-01-11T01:17:41.381Z,100.00
2023-01-11T01:20:10.968Z,100.00
2023-01-11T01:22:39.820Z,100.00
2023-01-11T01:25:09.523Z,100.00
2023-01-11T01:27:38.247Z,100.00
2023-01-11T01:30:10.551Z,100.00
2023-01-11T01:32:39.384Z,100.00
2023-01-11T01:35:09.303Z,100.00
2023-01-11T01:37:38.131Z,100.00
2023-01-11T01:40:07.810Z,100.00
2023-01-11T01:42:36.619Z,100.00
2023-01-11T01:45:08.161Z,100.00
2023-01-11T01:48:02.027Z,100.00
2023-01-11T01:50:41.748Z,100.00
2023-01-11T01:53:28.577Z,100.00
2023-01-11T01:56:01.917Z,100.00
2023-01-11T01:58:40.998Z,100.00
2023-01-11T02:01:27.941Z,100.00
2023-01-11T02:03:56.857Z,100.00
2023-01-11T02:06:25.968Z,100.00
2023-01-11T02:09:12.224Z,100.00
2023-01-11T02:11:43.583Z,100.00
2023-01-11T02:14:17.353Z,100.00
2023-01-11T02:16:46.143Z,100.00
2023-01-11T02:19:33.551Z,100.00
2023-01-11T02:22:44.082Z,100.00
2023-01-11T02:25:59.164Z,99.97
2023-01-11T02:28:58.507Z,99.97
2023-01-11T02:31:36.320Z,100.00
2023-01-11T02:34:29.418Z,100.00
2023-01-11T02:37:27.881Z,100.00
2023-01-11T02:40:14.603Z,100.00
2023-01-11T02:43:28.213Z,100.00
2023-01-11T02:46:13.596Z,100.00
2023-01-11T02:49:11.967Z,100.00
2023-01-11T02:51:47.982Z,100.00
2023-01-11T02:54:20.082Z,99.96
2023-01-11T02:56:54.484Z,99.74
2023-01-11T02:59:31.119Z,99.24
2023-01-11T03:02:00.037Z,98.53
2023-01-11T03:04:37.675Z,98.33
2023-01-11T03:07:49.110Z,98.49
2023-01-11T03:10:41.544Z,98.79
2023-01-11T03:13:31.687Z,98.24
2023-01-11T03:16:13.633Z,96.96
2023-01-11T03:18:52.720Z,98.06
2023-01-11T03:21:50.372Z,97.07
2023-01-11T03:24:31.040Z,97.39
2023-01-11T03:27:12.487Z,97.10
2023-01-11T03:30:00.592Z,97.85
2023-01-11T03:32:49.344Z,97.74
2023-01-11T03:35:28.424Z,96.78
2023-01-11T03:38:12.643Z,96.62
2023-01-11T03:40:53.692Z,97.27
2023-01-11T03:43:24.955Z,96.94
2023-01-11T03:46:04.969Z,97.00
2023-01-11T03:48:43.144Z,96.61
2023-01-11T03:51:18.005Z,95.58
2023-01-11T03:53:51.062Z,96.04
2023-01-11T03:56:30.753Z,96.49
2023-01-11T03:58:59.455Z,97.42
2023-01-11T04:01:28.507Z,98.91
2023-01-11T04:03:57.212Z,98.44
2023-01-11T04:06:26.136Z,98.60
2023-01-11T04:08:54.935Z,99.71
2023-01-11T04:11:23.602Z,99.77
2023-01-11T04:13:52.365Z,99.58
2023-01-11T04:16:21.169Z,99.65
2023-01-11T04:18:49.937Z,99.99
2023-01-11T04:21:18.658Z,99.95
2023-01-11T04:23:47.368Z,99.45
2023-01-11T04:26:17.738Z,99.76
2023-01-11T04:28:46.629Z,100.00
2023-01-11T04:31:15.407Z,99.99
2023-01-11T04:33:44.261Z,99.92
2023-01-11T04:36:13.155Z,99.84
2023-01-11T04:38:41.954Z,98.81
2023-01-11T04:41:29.362Z,98.56
2023-01-11T04:43:58.087Z,98.87
2023-01-11T04:46:27.065Z,98.28
2023-01-11T04:48:56.545Z,98.55
2023-01-11T04:51:25.387Z,99.38
2023-01-11T04:53:54.315Z,98.54
2023-01-11T04:56:23.629Z,99.88
2023-01-11T04:58:52.423Z,99.86
2023-01-11T05:01:21.609Z,99.31
2023-01-11T05:03:51.495Z,98.36
2023-01-11T05:06:22.580Z,98.85
2023-01-11T05:08:51.865Z,98.64
2023-01-11T05:11:21.047Z,98.02
2023-01-11T05:13:50.478Z,97.98
2023-01-11T05:16:25.996Z,97.66
2023-01-11T05:18:58.298Z,97.90
2023-01-11T05:21:41.960Z,97.74
2023-01-11T05:24:16.665Z,97.16
2023-01-11T05:26:46.625Z,97.41
2023-01-11T05:29:20.818Z,96.78
2023-01-11T05:31:49.781Z,96.90
2023-01-11T05:34:19.224Z,97.79
2023-01-11T05:36:48.046Z,96.47
2023-01-11T05:39:16.827Z,95.87
2023-01-11T05:41:45.968Z,96.18
2023-01-11T05:44:33.994Z,95.59
2023-01-11T05:47:03.050Z,95.81
2023-01-11T05:49:31.952Z,95.70
2023-01-11T05:52:00.900Z,95.90
2023-01-11T05:54:29.816Z,95.80
2023-01-11T05:56:58.669Z,96.25
2023-01-11T05:59:27.649Z,96.19
2023-01-11T06:01:57.949Z,96.29
2023-01-11T06:04:27.693Z,95.16
2023-01-11T06:06:56.739Z,95.78
2023-01-11T06:09:26.144Z,95.31
2023-01-11T06:11:55.071Z,94.75
2023-01-11T06:14:24.013Z,95.44
2023-01-11T06:16:53.234Z,94.98
2023-01-11T06:19:22.003Z,95.87
2023-01-11T06:21:50.767Z,95.41
2023-01-11T06:24:20.050Z,95.24
2023-01-11T06:26:49.177Z,95.63
2023-01-11T06:29:18.314Z,94.59
2023-01-11T06:31:47.533Z,94.23
2023-01-11T06:34:16.841Z,94.82
2023-01-11T06:36:46.104Z,94.56
2023-01-11T06:39:15.059Z,93.96
2023-01-11T06:41:43.864Z,94.54
2023-01-11T06:44:12.647Z,94.55
2023-01-11T06:46:41.532Z,94.89
2023-01-11T06:49:11.878Z,94.45
2023-01-11T06:51:40.579Z,94.39
2023-01-11T06:54:09.509Z,94.37
2023-01-11T06:56:38.265Z,93.64
2023-01-11T06:59:07.113Z,93.87
2023-01-11T07:01:36.067Z,93.64
2023-01-11T07:04:05.208Z,94.42
2023-01-11T07:06:37.057Z,93.88
2023-01-11T07:09:05.878Z,94.05
2023-01-11T07:11:39.100Z,94.59
2023-01-11T07:14:07.694Z,95.09
2023-01-11T07:16:36.701Z,94.33
2023-01-11T07:19:05.546Z,94.25
2023-01-11T07:21:34.307Z,94.20
2023-01-11T07:24:03.547Z,93.37
2023-01-11T07:26:33.372Z,93.49
2023-01-11T07:29:02.287Z,92.86
2023-01-11T07:31:31.117Z,92.91
2023-01-11T07:33:59.888Z,92.54
2023-01-11T07:36:30.163Z,92.64
2023-01-11T07:38:59.025Z,93.71
2023-01-11T07:41:46.429Z,93.91
2023-01-11T07:44:16.561Z,92.44
2023-01-11T07:46:45.424Z,93.44
2023-01-11T07:49:14.261Z,93.36
2023-01-11T07:51:42.950Z,92.35
2023-01-11T07:54:11.753Z,92.58
2023-01-11T07:56:40.591Z,92.82
2023-01-11T07:59:10.084Z,93.29
2023-01-11T08:01:38.948Z,92.13
2023-01-11T08:04:12.138Z,91.52
2023-01-11T08:06:42.281Z,91.28
2023-01-11T08:09:11.739Z,92.96
2023-01-11T08:11:58.914Z,92.49
2023-01-11T08:14:39.644Z,92.96
2023-01-11T08:17:16.495Z,91.89
2023-01-11T08:19:45.436Z,92.71
2023-01-11T08:22:14.218Z,92.80
2023-01-11T08:24:43.087Z,92.20
2023-01-11T08:27:11.996Z,91.48
2023-01-11T08:29:44.162Z,91.69
2023-01-11T08:32:13.717Z,91.77
2023-01-11T08:34:42.479Z,91.59
2023-01-11T08:37:11.345Z,91.05
2023-01-11T08:39:40.664Z,90.86
2023-01-11T08:42:09.457Z,90.29
2023-01-11T08:44:38.481Z,90.77
2023-01-11T08:47:07.608Z,90.07
2023-01-11T08:49:36.513Z,90.18
2023-01-11T08:52:05.315Z,90.39
2023-01-11T08:54:34.071Z,90.52
2023-01-11T08:57:02.974Z,90.22
2023-01-11T08:59:32.028Z,89.89
2023-01-11T09:02:01.740Z,90.07
2023-01-11T09:04:30.787Z,89.87
2023-01-11T09:06:59.867Z,90.25
2023-01-11T09:09:28.795Z,89.59
2023-01-11T09:11:59.005Z,89.33
2023-01-11T09:14:28.955Z,90.57
2023-01-11T09:16:58.251Z,91.21
2023-01-11T09:19:27.096Z,90.94
2023-01-11T09:22:00.414Z,92.07
2023-01-11T09:24:32.155Z,90.97
2023-01-11T09:27:01.121Z,91.37
2023-01-11T09:29:29.964Z,90.49
2023-01-11T09:31:58.779Z,90.42
2023-01-11T09:34:27.684Z,90.77
2023-01-11T09:37:00.134Z,91.41
2023-01-11T09:39:29.078Z,91.16
2023-01-11T09:42:39.864Z,88.99
2023-01-11T09:45:31.395Z,89.76
2023-01-11T09:48:14.972Z,88.95
2023-01-11T09:50:48.775Z,88.98
2023-01-11T09:53:50.493Z,89.71
2023-01-11T09:56:39.342Z,89.10
2023-01-11T09:59:27.184Z,88.78
2023-01-11T10:02:10.354Z,89.12
2023-01-11T10:05:23.687Z,88.65
2023-01-11T10:18:30.859Z,90.26
2023-01-11T10:18:41.879Z,90.05
2023-01-11T10:20:41.113Z,90.03
2023-01-11T10:23:42.149Z,89.84
2023-01-11T10:26:25.280Z,89.19
2023-01-11T10:29:17.069Z,88.94
2023-01-11T10:32:22.285Z,88.65
2023-01-11T10:35:18.205Z,88.94
2023-01-11T10:38:07.646Z,89.25
2023-01-11T10:41:06.949Z,89.23
2023-01-11T10:43:44.667Z,88.73
2023-01-11T10:46:21.842Z,89.20
2023-01-11T10:49:03.953Z,88.88
2023-01-11T10:51:41.016Z,88.60
2023-01-11T10:54:30.255Z,88.84
2023-01-11T10:57:59.492Z,87.97
2023-01-11T11:00:51.787Z,88.67
2023-01-11T11:03:59.639Z,89.87
2023-01-11T11:06:45.947Z,89.17
2023-01-11T11:09:35.652Z,89.07
2023-01-11T11:12:30.680Z,88.30
2023-01-11T11:15:02.191Z,91.16
2023-01-11T11:17:41.001Z,90.25
2023-01-11T11:20:29.535Z,90.99
2023-01-11T11:22:59.250Z,89.60
2023-01-11T11:25:42.606Z,91.39
2023-01-11T11:28:15.073Z,89.74
2023-01-11T11:30:47.463Z,89.35
2023-01-11T11:33:40.800Z,89.63
2023-01-11T11:36:15.319Z,89.23
2023-01-11T11:39:18.608Z,88.82
2023-01-11T11:41:50.202Z,88.92
2023-01-11T11:44:25.437Z,89.63
2023-01-11T11:47:02.470Z,87.55
2023-01-11T11:49:36.861Z,87.91
2023-01-11T11:52:07.018Z,88.17
2023-01-11T11:54:48.472Z,87.48
2023-01-11T11:57:31.367Z,87.20
2023-01-11T12:00:22.513Z,87.40
2023-01-11T12:03:00.017Z,88.60
2023-01-11T12:05:29.563Z,88.31
2023-01-11T12:07:59.118Z,87.97
2023-01-11T12:10:30.708Z,87.40
2023-01-11T12:13:03.011Z,87.80
2023-01-11T12:15:35.300Z,87.16
2023-01-11T12:18:27.872Z,88.35
2023-01-11T12:20:56.698Z,88.55
2023-01-11T12:23:26.839Z,88.70
2023-01-11T12:26:22.090Z,88.56
2023-01-11T12:29:06.053Z,87.70
2023-01-11T12:32:00.574Z,87.56
2023-01-11T12:34:55.735Z,87.85
2023-01-11T12:37:57.001Z,88.77
2023-01-11T12:40:42.137Z,88.80
2023-01-11T12:43:36.795Z,88.86
2023-01-11T12:46:29.855Z,89.74
2023-01-11T12:49:35.272Z,88.12
2023-01-11T12:52:48.434Z,88.58
2023-01-11T12:56:20.546Z,88.02
2023-01-11T12:59:24.356Z,88.14
2023-01-11T13:02:08.234Z,87.89
2023-01-11T13:05:18.789Z,88.05
2023-01-11T13:08:18.925Z,87.09
2023-01-11T13:11:37.487Z,88.89
2023-01-11T13:14:45.336Z,87.98
2023-01-11T13:17:29.116Z,87.60
2023-01-11T13:20:28.113Z,87.72
2023-01-11T13:23:14.574Z,88.76
2023-01-11T13:25:48.989Z,88.21
2023-01-11T13:28:25.331Z,88.24
2023-01-11T13:30:54.762Z,88.60
2023-01-11T13:33:28.149Z,88.65
2023-01-11T13:36:56.165Z,88.98
2023-01-11T13:39:43.000Z,88.94
2023-01-11T13:42:22.990Z,89.57
2023-01-11T13:45:07.737Z,89.81
2023-01-11T13:47:51.777Z,89.73
2023-01-11T13:50:32.347Z,89.66
2023-01-11T13:53:20.119Z,89.61
2023-01-11T13:56:10.134Z,89.82
2023-01-11T13:58:57.879Z,89.78
2023-01-11T14:01:59.515Z,89.68
2023-01-11T14:04:43.497Z,89.52
2023-01-11T14:08:00.994Z,89.24
2023-01-11T14:10:43.128Z,89.82
2023-01-11T14:13:53.247Z,90.01
2023-01-11T14:16:50.648Z,90.00
2023-01-11T14:19:41.595Z,90.00
2023-01-11T14:22:21.110Z,90.35
2023-01-11T14:25:09.741Z,90.68
2023-01-11T14:27:41.613Z,90.69
2023-01-11T14:30:24.947Z,90.60
2023-01-11T14:33:19.265Z,90.52
2023-01-11T14:36:20.492Z,91.54
2023-01-11T14:39:17.471Z,90.40
2023-01-11T14:42:39.988Z,90.35
2023-01-11T14:46:05.981Z,90.51
2023-01-11T14:49:10.933Z,90.74
2023-01-11T14:52:04.106Z,90.44
2023-01-11T14:54:45.562Z,91.07
2023-01-11T14:57:45.233Z,91.66
2023-01-11T15:00:21.161Z,92.16
2023-01-11T15:03:04.516Z,93.11
2023-01-11T15:05:48.520Z,90.88
2023-01-11T15:08:24.658Z,91.22
2023-01-11T15:11:07.957Z,91.05
2023-01-11T15:13:46.397Z,91.66
2023-01-11T15:16:50.022Z,91.12
2023-01-11T15:19:34.532Z,92.21
2023-01-11T15:22:06.487Z,91.90
2023-01-11T15:24:54.555Z,91.31
2023-01-11T15:27:34.361Z,91.25
2023-01-11T15:30:28.452Z,91.44
2023-01-11T15:33:19.304Z,91.17
2023-01-11T15:35:57.330Z,92.24
2023-01-11T15:38:37.663Z,91.15
2023-01-11T15:41:33.183Z,91.33
2023-01-11T15:44:49.184Z,91.27
2023-01-11T15:48:07.044Z,92.10
2023-01-11T15:51:02.941Z,91.36
2023-01-11T15:54:01.597Z,90.96
2023-01-11T15:57:14.579Z,90.68
2023-01-11T16:00:05.977Z,90.50
2023-01-11T16:02:34.720Z,89.97
2023-01-11T16:05:20.616Z,89.26
2023-01-11T16:08:19.849Z,89.65
2023-01-11T16:11:43.199Z,90.15
2023-01-11T16:15:03.444Z,91.21
2023-01-11T16:17:34.815Z,90.82
2023-01-11T16:20:28.098Z,89.74
2023-01-11T16:23:01.556Z,90.44
2023-01-11T16:25:41.940Z,89.69
2023-01-11T16:28:17.575Z,89.79
2023-01-11T16:30:47.628Z,89.85
2023-01-11T16:33:25.561Z,89.82
2023-01-11T16:36:13.381Z,90.42
2023-01-11T16:39:03.049Z,89.79
2023-01-11T16:42:06.295Z,89.89
2023-01-11T16:44:48.990Z,90.36
2023-01-11T16:47:20.481Z,89.96
2023-01-11T16:50:21.868Z,89.82
2023-01-11T16:53:07.364Z,90.33
2023-01-11T16:55:42.836Z,90.55
2023-01-11T16:58:29.336Z,90.25
2023-01-11T17:01:05.220Z,91.13
2023-01-11T17:03:43.995Z,90.21
2023-01-11T17:06:13.329Z,90.54
2023-01-11T17:08:55.197Z,90.80
2023-01-11T17:11:46.928Z,90.35
2023-01-11T17:14:31.636Z,89.98
2023-01-11T17:17:07.444Z,90.48
2023-01-11T17:19:43.383Z,90.18
2023-01-11T17:22:31.759Z,90.26
2023-01-11T17:25:05.198Z,90.75
2023-01-11T17:27:46.205Z,90.14
2023-01-11T17:30:22.908Z,89.88
2023-01-11T17:32:54.527Z,89.90
2023-01-11T17:35:30.682Z,90.59
2023-01-11T17:38:06.188Z,90.75
2023-01-11T17:40:39.308Z,90.63
2023-01-11T17:43:46.107Z,91.06
2023-01-11T17:46:22.971Z,90.00
2023-01-11T17:49:00.320Z,90.40
2023-01-11T17:51:34.428Z,90.45
2023-01-11T17:54:03.839Z,90.23
2023-01-11T17:56:33.038Z,90.47
2023-01-11T17:59:23.884Z,90.07
2023-01-11T18:01:59.810Z,89.90
2023-01-11T18:04:29.647Z,89.99
2023-01-11T18:07:20.040Z,89.55
2023-01-11T18:10:02.144Z,89.28
2023-01-11T18:12:35.642Z,89.76
2023-01-11T18:15:07.239Z,89.99
2023-01-11T18:17:40.480Z,90.18
2023-01-11T18:20:15.580Z,90.04
2023-01-11T18:23:20.698Z,90.51
2023-01-11T18:25:49.512Z,90.09
2023-01-11T18:28:23.831Z,89.38
2023-01-11T18:30:56.757Z,89.60
2023-01-11T18:33:29.782Z,89.99
2023-01-11T18:36:03.322Z,89.77
2023-01-11T18:38:36.628Z,89.07
2023-01-11T18:41:28.555Z,89.63
2023-01-11T18:43:57.365Z,89.34
2023-01-11T18:46:26.330Z,89.88
2023-01-11T18:48:55.255Z,89.11
2023-01-11T18:51:36.212Z,90.44
2023-01-11T18:54:05.807Z,88.89
2023-01-11T18:56:34.671Z,88.82
2023-01-11T18:59:03.457Z,89.02
2023-01-11T19:01:37.630Z,89.84
2023-01-11T19:04:14.640Z,90.29
2023-01-11T19:06:43.466Z,90.15
2023-01-11T19:09:12.227Z,89.65
2023-01-11T19:11:40.927Z,89.77
2023-01-11T19:14:11.074Z,90.15
2023-01-11T19:16:39.956Z,90.31
2023-01-11T19:19:09.495Z,90.96
2023-01-11T19:21:38.421Z,90.74
2023-01-11T19:24:07.736Z,90.97
2023-01-11T19:26:36.671Z,90.34
2023-01-11T19:29:05.601Z,90.73
2023-01-11T19:31:34.410Z,90.21
2023-01-11T19:34:03.252Z,90.50
2023-01-11T19:36:32.441Z,89.51
2023-01-11T19:39:01.279Z,89.50
2023-01-11T19:41:50.078Z,90.44
2023-01-11T19:44:19.602Z,89.87
2023-01-11T19:47:00.383Z,90.57
2023-01-11T19:49:39.428Z,90.54
2023-01-11T19:52:13.588Z,90.38
2023-01-11T19:54:43.702Z,89.88
2023-01-11T19:57:15.983Z,90.33
2023-01-11T19:59:44.976Z,90.28
2023-01-11T20:02:15.995Z,90.01
2023-01-11T20:04:45.280Z,89.94
2023-01-11T20:07:14.982Z,89.65
2023-01-11T20:09:44.213Z,90.15
2023-01-11T20:12:15.731Z,90.44
2023-01-11T20:14:46.440Z,89.67
2023-01-11T20:17:21.248Z,89.04
2023-01-11T20:19:54.877Z,90.06
2023-01-11T20:22:25.260Z,89.57
2023-01-11T20:24:53.995Z,89.42
2023-01-11T20:27:22.784Z,88.56
2023-01-11T20:29:51.527Z,88.64
2023-01-11T20:32:39.684Z,89.81
2023-01-11T20:35:10.756Z,89.70
2023-01-11T20:37:39.674Z,89.26
2023-01-11T20:40:09.343Z,89.93
2023-01-11T20:42:38.208Z,88.92
2023-01-11T20:45:07.918Z,89.61
2023-01-11T20:47:37.013Z,90.16
2023-01-11T20:50:06.392Z,90.10
2023-01-11T20:52:35.141Z,90.99
2023-01-11T20:55:04.109Z,89.71
2023-01-11T20:57:32.847Z,89.73
2023-01-11T21:00:01.551Z,90.09
2023-01-11T21:02:30.601Z,90.16
2023-01-11T21:05:00.101Z,90.04
2023-01-11T21:07:29.005Z,89.43
2023-01-11T21:09:57.803Z,89.59
2023-01-11T21:12:26.583Z,90.11
2023-01-11T21:14:55.384Z,90.24
2023-01-11T21:17:24.291Z,90.66
2023-01-11T21:19:54.060Z,90.97
2023-01-11T21:22:22.779Z,90.81
2023-01-11T21:24:51.542Z,90.46
2023-01-11T21:27:20.473Z,89.78
2023-01-11T21:29:49.379Z,90.48
2023-01-11T21:32:18.201Z,90.88
2023-01-11T21:34:46.976Z,90.24
2023-01-11T21:37:15.892Z,89.91
2023-01-11T21:39:45.316Z,90.06
2023-01-11T21:42:14.110Z,89.98
2023-01-11T21:44:42.854Z,89.23
2023-01-11T21:47:14.726Z,89.94
2023-01-11T21:49:43.558Z,89.05
2023-01-11T21:52:12.423Z,89.09
2023-01-11T21:54:41.161Z,89.68
2023-01-11T21:57:10.014Z,89.72
2023-01-11T21:59:38.782Z,90.56
2023-01-11T22:02:07.532Z,89.80
2023-01-11T22:04:36.355Z,89.78
2023-01-11T22:07:05.292Z,90.41
2023-01-11T22:09:34.255Z,90.61
2023-01-11T22:12:03.243Z,90.79
2023-01-11T22:14:32.095Z,91.14
2023-01-11T22:17:03.031Z,91.29
2023-01-11T22:19:33.189Z,91.15
2023-01-11T22:22:01.998Z,92.01
2023-01-11T22:24:30.928Z,91.98
2023-01-11T22:27:00.094Z,91.42
2023-01-11T22:29:29.857Z,92.05
2023-01-11T22:32:01.575Z,91.72
2023-01-11T22:34:30.580Z,91.19
2023-01-11T22:36:59.376Z,92.29
2023-01-11T22:39:29.668Z,91.48
2023-01-11T22:41:58.563Z,92.27
2023-01-11T22:44:27.418Z,91.49
2023-01-11T22:46:56.485Z,91.94
2023-01-11T22:49:25.981Z,92.79
2023-01-11T22:51:54.834Z,92.41
2023-01-11T22:54:23.669Z,92.32
2023-01-11T22:56:52.598Z,91.99
2023-01-11T22:59:21.500Z,92.53
2023-01-11T23:01:50.286Z,92.53
2023-01-11T23:04:19.054Z,92.57
2023-01-11T23:06:47.924Z,92.64
2023-01-11T23:09:17.246Z,92.06
2023-01-11T23:12:04.779Z,92.59
2023-01-11T23:14:33.923Z,92.19
2023-01-11T23:17:08.264Z,92.38
2023-01-11T23:19:39.866Z,93.43
2023-01-11T23:22:10.058Z,93.33
2023-01-11T23:24:39.133Z,93.43
2023-01-11T23:27:08.080Z,93.25
2023-01-11T23:29:36.893Z,93.37
2023-01-11T23:32:05.993Z,93.57
2023-01-11T23:34:34.847Z,93.75
2023-01-11T23:37:03.700Z,94.01
2023-01-11T23:39:32.992Z,94.33
2023-01-11T23:42:19.820Z,95.27
2023-01-11T23:44:48.563Z,95.71
2023-01-11T23:47:25.031Z,96.22
2023-01-11T23:50:00.938Z,95.96
2023-01-11T23:52:32.511Z,95.55
2023-01-11T23:55:01.403Z,96.04
2023-01-11T23:57:30.205Z,96.27
2023-01-11T23:59:58.938Z,95.74
